• Join FlightAware (Why Join?)
  • Login
  • US Flag 
03:13AM EDT


 

Airport Tracker/Info


-or-


 

Live Flight TrackerFlight Track Log ✈ GJS3707 ✈ 10-Jul-2013 ✈ KORD - KBOI

Flight Track Log - Related Links

Times and Time Zones

All times are in EDT time to prevent confusion due to time zone crossing. See the GJS3707 flight status page for this flight to view local times or setup timezone preferences in your user account.

Time Position Orientation Groundspeed Altitude Reporting Facility
EDT Latitude Longitude Course Direction KTS MPH feet Rate Location/Type
10:54AM 42.0000 -87.9667 270° West 181 208 2,000  Level Chicago TRACON
10:55AM 41.9833 -88.0500 255° West 239 275 3,800 1,320 Climbing Chicago TRACON
10:57AM 41.9667 -88.3042 270° West  Level FlightAware Approximate
10:57AM 41.9953 -88.1564 279° West 263 303 5,200  Level Chicago Center
10:58AM 41.9667 -88.4389 270° West  Level FlightAware Approximate
10:58AM 42.0094 -88.2697 280° West 261 300 8,400  Level Chicago Center
10:59AM 41.9668 -88.5736 270° West  Level FlightAware Approximate
10:59AM 42.0397 -88.3547 296° West 259 298 10,800  Level Chicago Center
11:00AM 41.9667 -88.7083 270° West  Level FlightAware Approximate
11:00AM 42.0806 -88.4342 305° West 260 299 12,800  Level Chicago Center
11:01AM 42.0789 -88.5344 269° West 287 330 13,600 960 Climbing Chicago Center
11:02AM 42.0572 -88.6728 258° West 317 365 14,900 1,200 Climbing Chicago Center
11:03AM 42.0556 -88.8011 269° West 344 396 16,200 1,200 Climbing Chicago Center
11:04AM 42.0575 -88.9306 271° West 349 402 17,500 1,200 Climbing Chicago Center
11:05AM 42.0644 -89.0628 274° West 357 411 18,800 1,320 Climbing Chicago Center
11:06AM 42.0728 -89.2167 274° West 369 425 20,300 1,320 Climbing Chicago Center
11:07AM 42.0789 -89.3561 273° West 373 429 21,600 1,260 Climbing Chicago Center
11:08AM 42.0567 -89.5022 258° West 378 435 23,000 1,200 Climbing Chicago Center
11:09AM 42.0372 -89.6389 259° West 376 433 24,100 1,080 Climbing Chicago Center
11:10AM 42.0408 -89.7797 272° West 382 440 25,300 1,260 Climbing Chicago Center
11:11AM 42.0539 -89.9281 277° West 385 443 26,800 1,500 Climbing Chicago Center
11:12AM 42.0675 -90.0639 278° West 373 429 28,400 1,200 Climbing Chicago Center
11:13AM 42.0833 -90.2006 279° West 373 429 29,400 720 Climbing Chicago Center
11:14AM 42.1003 -90.3356 280° West 369 425 29,900 600 Climbing Chicago Center
11:15AM 42.1194 -90.5039 279° West 381 438 30,700 660 Climbing Chicago Center
11:16AM 42.1361 -90.6458 279° West 386 444 31,300 540 Climbing Chicago Center
11:17AM 42.1539 -90.7906 279° West 391 450 31,900 540 Climbing Chicago Center
11:18AM 42.1708 -90.9342 279° West 391 450 32,500 540 Climbing Chicago Center
11:19AM 42.1858 -91.0811 278° West 397 457 33,100 600 Climbing Chicago Center
11:20AM 42.2322 -91.2478 291° West 400 460 33,800 600 Climbing Chicago Center
11:22AM 42.2911 -91.3761 302° West 403 464 34,400 540 Climbing Chicago Center
11:23AM 42.3842 -91.4706 323° Northwest 422 486 35,000 540 Climbing Chicago Center
11:24AM 42.4736 -91.5644 322° Northwest 413 475 35,600 480 Climbing Chicago Center
11:25AM 42.5344 -91.6867 304° West 396 456 36,000 180 Climbing Chicago Center
11:26AM 42.5814 -91.8236 295° West 397 457 36,000  Level Chicago Center
11:27AM 42.6306 -91.9617 296° West 403 464 36,000  Level Chicago Center
11:28AM 42.6878 -92.1267 295° West 404 465 36,000  Level Chicago Center
11:29AM 42.7328 -92.2583 295° West 390 449 36,000  Level Chicago Center
11:30AM 42.7781 -92.3875 296° West 382 440 36,000  Level Chicago Center
11:31AM 42.8222 -92.5161 295° West 378 435 36,000  Level Chicago Center
11:32AM 42.8642 -92.6417 295° West 370 426 36,000  Level Chicago Center
11:32AM 42.8986 -92.7406 295° West 364 419 36,000  Level Minneapolis Center
11:34AM 42.9383 -92.8628 294° West 358 412 36,000  Level Minneapolis Center
11:35AM 42.9797 -92.9856 295° West 358 412 36,000  Level Minneapolis Center
11:36AM 43.0206 -93.1058 295° West 354 407 36,000  Level Minneapolis Center
11:37AM 43.0594 -93.2272 294° West 351 404 36,000  Level Minneapolis Center
11:38AM 43.1031 -93.3764 292° West 354 407 36,000  Level Minneapolis Center
11:39AM 43.1253 -93.5131 283° West 368 423 36,000  Level Minneapolis Center
11:40AM 43.1506 -93.6544 284° West 382 440 36,000  Level Minneapolis Center
11:41AM 43.1764 -93.7956 284° West 386 444 36,000  Level Minneapolis Center
11:42AM 43.2003 -93.9381 283° West 388 447 36,000  Level Minneapolis Center
11:43AM 43.2325 -94.1122 284° West 394 453 36,000  Level Minneapolis Center
11:44AM 43.2542 -94.2572 282° West 392 451 36,000  Level Minneapolis Center
11:45AM 43.2792 -94.3986 284° West 385 443 36,000 120 Level Minneapolis Center
11:46AM 43.3033 -94.5444 283° West 390 449 36,300 420 Climbing Minneapolis Center
11:47AM 43.3267 -94.6881 283° West 389 448 36,900 540 Climbing Minneapolis Center
11:48AM 43.3556 -94.8606 283° West 388 447 37,500 480 Climbing Minneapolis Center
11:49AM 43.3783 -95.0033 282° West 384 442 38,000 240 Climbing Minneapolis Center
11:50AM 43.4008 -95.1433 283° West 379 436 38,000  Level Minneapolis Center
11:51AM 43.4236 -95.2878 282° West 386 444 38,000  Level Minneapolis Center
11:52AM 43.4461 -95.4342 282° West 391 450 38,000  Level Minneapolis Center
11:53AM 43.4692 -95.5814 282° West 394 453 38,000  Level Minneapolis Center
11:54AM 43.5014 -95.7881 282° West 396 456 38,000  Level Minneapolis Center
11:55AM 43.5242 -95.9372 282° West 397 457 38,000  Level Minneapolis Center
11:56AM 43.5464 -96.0858 282° West 396 456 38,000  Level Minneapolis Center
11:58AM 43.5689 -96.2325 282° West 391 450 38,000  Level Minneapolis Center
11:59AM 43.5911 -96.3817 282° West 395 455 38,000  Level Minneapolis Center
12:00PM 43.6128 -96.5303 281° West 395 455 38,000  Level Minneapolis Center
12:01PM 43.6389 -96.7075 282° West 393 452 38,000  Level Minneapolis Center
12:02PM 43.6558 -96.8575 279° West 395 455 38,000  Level Minneapolis Center
12:03PM 43.6667 -97.0078 276° West 393 452 38,000  Level Minneapolis Center
12:04PM 43.6792 -97.1575 277° West 393 452 38,000  Level Minneapolis Center
12:05PM 43.6897 -97.3083 276° West 394 453 38,000  Level Minneapolis Center
12:06PM 43.7036 -97.4900 276° West 397 457 38,000  Level Minneapolis Center
12:07PM 43.7197 -97.7008 276° West 397 457 38,000  Level Minneapolis Center
12:08PM 43.7297 -97.8525 275° West 397 457 38,000  Level Minneapolis Center
12:09PM 43.7408 -98.0036 276° West 397 457 38,000  Level Minneapolis Center
12:10PM 43.7706 -98.1497 286° West 397 457 38,000  Level Minneapolis Center
12:11PM 43.8028 -98.2942 287° West 395 455 38,000  Level Minneapolis Center
12:12PM 43.8347 -98.4386 287° West 394 453 38,000  Level Minneapolis Center
12:13PM 43.8728 -98.6131 287° West 395 455 38,000  Level Minneapolis Center
12:14PM 43.9050 -98.7617 287° West 391 450 38,000  Level Minneapolis Center
12:16PM 43.9350 -98.9078 286° West 392 451 38,000  Level Minneapolis Center
12:17PM 43.9667 -99.0525 287° West 392 451 38,000  Level Minneapolis Center
12:18PM 44.0042 -99.2267 287° West 392 451 38,000  Level Minneapolis Center
12:19PM 44.0344 -99.3731 286° West 393 452 38,000  Level Minneapolis Center
12:20PM 44.0711 -99.5492 286° West 394 453 38,000  Level Minneapolis Center
12:21PM 44.1017 -99.6953 286° West 393 452 38,000  Level Minneapolis Center
12:22PM 44.1381 -99.8725 286° West 394 453 38,000  Level Minneapolis Center
12:23PM 44.1683 -100.0197 286° West 395 455 38,000  Level Minneapolis Center
12:24PM 44.1919 -100.1369 286° West 394 453 38,000  Level Minneapolis Center
12:25PM 44.2292 -100.3147 286° West 396 456 38,000  Level Minneapolis Center
12:26PM 44.2578 -100.4622 285° West 395 455 38,000  Level Minneapolis Center
12:27PM 44.2872 -100.6114 285° West 396 456 38,000  Level Minneapolis Center
12:28PM 44.3167 -100.7594 286° West 396 456 38,000  Level Minneapolis Center
12:29PM 44.3508 -100.9381 285° West 396 456 38,000  Level Minneapolis Center
12:30PM 44.3803 -101.0869 286° West 396 456 38,000  Level Minneapolis Center
12:31PM 44.4097 -101.2361 285° West 396 456 38,000  Level Minneapolis Center
12:32PM 44.4375 -101.3850 285° West 397 457 38,000  Level Minneapolis Center
12:34PM 44.4656 -101.5339 285° West 396 456 38,000  Level Minneapolis Center
12:35PM 44.4944 -101.6833 285° West 396 456 38,000  Level Minneapolis Center
12:36PM 44.5281 -101.8633 285° West 397 457 38,000  Level Minneapolis Center
12:37PM 44.5572 -102.0133 285° West 397 457 38,000  Level Minneapolis Center
12:38PM 44.5842 -102.1636 284° West 398 458 38,000  Level Minneapolis Center
12:39PM 44.6125 -102.3128 285° West 397 457 38,000  Level Minneapolis Center
12:40PM 44.6397 -102.4644 284° West 398 458 38,000  Level Minneapolis Center
12:41PM 44.6672 -102.6167 284° West 400 460 38,000  Level Minneapolis Center
12:42PM 44.6939 -102.7689 284° West 402 463 38,000  Level Minneapolis Center
12:43PM 44.7258 -102.9542 284° West 404 465 38,000  Level Minneapolis Center
12:44PM 44.7208 -103.1128 268° West 404 465 38,000  Level Minneapolis Center
12:45PM 44.7156 -103.2714 267° West 407 468 38,000  Level Minneapolis Center
12:46PM 44.7108 -103.4300 268° West 407 468 38,000  Level Minneapolis Center
12:47PM 44.7050 -103.5889 267° West 407 468 38,000  Level Minneapolis Center
12:48PM 44.7000 -103.7583 268° West 408 470 38,000  Level Minneapolis Center
12:49PM 44.6956 -103.8669 267° West 410 472 38,000  Level Salt Lake Center
12:49PM 44.6931 -103.9444 267° West 407 468 38,000  Level Denver Center
12:50PM 44.6867 -104.1217 267° West 407 468 38,000  Level Denver Center
12:51PM 44.6800 -104.2742 267° West 406 467 38,000  Level Denver Center
12:52PM 44.6750 -104.4261 267° West 407 468 38,000  Level Denver Center
12:53PM 44.6658 -104.6019 266° West 408 470 38,000  Level Denver Center
12:54PM 44.6614 -104.7269 267° West 405 466 38,000  Level Denver Center
12:55PM 44.6533 -104.9042 266° West 406 467 38,000  Level Denver Center
12:56PM 44.6450 -105.0825 266° West 409 471 38,000  Level Denver Center
12:57PM 44.6372 -105.2597 267° West 408 470 38,000  Level Denver Center
12:58PM 44.6297 -105.4147 266° West 409 471 38,000  Level Denver Center
12:59PM 44.6206 -105.5736 265° West 411 473 38,000  Level Denver Center
01:01PM 44.6131 -105.7333 266° West 412 474 38,000  Level Denver Center
01:02PM 44.6025 -105.9272 266° West 414 476 38,000  Level Denver Center
01:03PM 44.5950 -106.0561 265° West 415 478 38,000  Level Denver Center
01:04PM 44.5844 -106.2503 266° West 417 480 38,000  Level Denver Center
01:05PM 44.5750 -106.4117 265° West 417 480 38,000  Level Denver Center
01:06PM 44.5669 -106.5400 265° West 415 478 38,000  Level Denver Center
01:07PM 44.5569 -106.7325 266° West 413 475 38,000  Level Denver Center
01:08PM 44.5439 -106.9261 265° West 415 478 38,000  Level Denver Center
01:09PM 44.5328 -107.0864 265° West 414 476 38,000  Level Denver Center
01:10PM 44.5172 -107.3131 265° West 416 479 38,000  Level Salt Lake Center
01:11PM 44.5056 -107.4731 264° West 412 474 38,000  Level Salt Lake Center
01:12PM 44.4939 -107.6325 264° West 410 472 38,000  Level Salt Lake Center
01:13PM 44.4811 -107.8269 265° West 414 476 38,000  Level Salt Lake Center
01:14PM 44.4692 -107.9881 264° West 414 476 38,000  Level Salt Lake Center
01:15PM 44.4581 -108.1494 265° West 415 478 38,000  Level Salt Lake Center
01:16PM 44.4461 -108.3103 264° West 415 478 38,000  Level Salt Lake Center
01:18PM 44.4344 -108.4708 264° West 414 476 38,000  Level Salt Lake Center
01:19PM 44.4219 -108.6314 264° West 415 478 38,000  Level Salt Lake Center
01:20PM 44.4094 -108.7917 264° West 415 478 38,000  Level Salt Lake Center
01:21PM 44.3936 -108.9836 263° West 415 478 38,000  Level Salt Lake Center
01:22PM 44.3803 -109.1439 263° West 415 478 38,000  Level Salt Lake Center
01:23PM 44.3664 -109.3017 263° West 412 474 38,000  Level Salt Lake Center
01:24PM 44.3519 -109.4753 263° West 411 473 38,000  Level Salt Lake Center
01:25PM 44.3406 -109.6236 264° West 405 466 38,000  Level Salt Lake Center
01:26PM 44.3267 -109.7739 263° West 408 470 38,000  Level Salt Lake Center
01:27PM 44.3106 -109.9481 263° West 406 467 38,000  Level Salt Lake Center
01:28PM 44.2983 -110.0958 263° West 403 464 38,000  Level Salt Lake Center
01:29PM 44.2825 -110.2708 263° West 406 467 38,000  Level Salt Lake Center
01:30PM 44.2667 -110.4178 261° West 403 464 38,000  Level Salt Lake Center
01:31PM 44.2508 -110.5889 263° West 399 459 38,000  Level Salt Lake Center
01:32PM 44.2361 -110.7339 262° West 394 453 38,000  Level Salt Lake Center
01:33PM 44.2194 -110.9033 262° West 394 453 38,000  Level Salt Lake Center
01:34PM 44.2058 -111.0486 263° West 394 453 38,000  Level Salt Lake Center
01:35PM 44.1878 -111.2175 262° West 392 451 38,000  Level Salt Lake Center
01:36PM 44.1733 -111.3614 262° West 390 449 38,000  Level Salt Lake Center
01:37PM 44.1575 -111.5067 261° West 392 451 38,000  Level Salt Lake Center
01:38PM 44.1406 -111.6775 262° West 395 455 38,000  Level Salt Lake Center
01:39PM 44.1253 -111.8219 262° West 394 453 38,000  Level Salt Lake Center
01:40PM 44.1075 -111.9906 262° West 394 453 38,000  Level Salt Lake Center
01:41PM 44.0911 -112.1333 261° West 391 450 38,000  Level Salt Lake Center
01:42PM 44.0714 -112.3014 261° West 392 451 38,000  Level Salt Lake Center
01:43PM 44.0553 -112.4453 261° West 393 452 38,000  Level Salt Lake Center
01:44PM 44.0375 -112.6136 262° West 395 455 38,000  Level Salt Lake Center
01:45PM 44.0194 -112.7572 260° West 394 453 38,000  Level Salt Lake Center
01:46PM 44.0036 -112.9011 261° West 394 453 38,000  Level Salt Lake Center
01:48PM 43.9833 -113.0683 260° West 394 453 38,000  Level Salt Lake Center
01:49PM 43.9683 -113.2106 262° West 392 451 38,000  Level Salt Lake Center
01:50PM 43.9464 -113.3786 260° West 396 456 38,000  Level Salt Lake Center
01:51PM 43.9294 -113.5200 261° West 390 449 38,000  Level Salt Lake Center
01:52PM 43.9114 -113.6881 262° West 390 449 38,000  Level Salt Lake Center
01:53PM 43.8933 -113.8289 260° West 389 448 38,000 -240 Level Salt Lake Center
01:54PM 43.8719 -113.9897 260° West 387 445 37,600 -1,020 Descending Salt Lake Center
01:55PM 43.8553 -114.1269 260° West 377 434 35,900 -2,040 Descending Salt Lake Center
01:56PM 43.8325 -114.2819 259° West 362 417 33,500 -2,280 Descending Salt Lake Center
01:57PM 43.8153 -114.4181 260° West 376 433 31,300 -2,280 Descending Salt Lake Center
01:58PM 43.7917 -114.5939 260° West 416 479 28,900 -2,280 Descending Salt Lake Center
01:59PM 43.7714 -114.7483 260° West 425 489 26,600 -2,520 Descending Salt Lake Center
02:00PM 43.7503 -114.9203 260° West 409 471 23,800 -2,460 Descending Salt Lake Center
02:01PM 43.7314 -115.0600 259° West 387 445 21,600 -2,100 Descending Salt Lake Center
02:02PM 43.7125 -115.1944 259° West 376 433 19,500 -1,740 Descending Salt Lake Center
02:03PM 43.6906 -115.3489 259° West 368 423 18,100 -1,440 Descending Salt Lake Center
02:04PM 43.6708 -115.4883 259° West 358 412 16,600 -1,560 Descending Salt Lake Center
02:05PM 43.6392 -115.6228 252° West 358 412 14,900 -2,100 Descending Salt Lake Center
02:06PM 43.5903 -115.7369 239° Southwest 336 387 12,300 -2,460 Descending Salt Lake Center
02:07PM 43.5433 -115.8489 240° Southwest 324 373 9,800 -2,400 Descending Salt Lake Center
02:08PM 43.5058 -115.9478 242° Southwest 286 329 7,400 -2,340 Descending Salt Lake Center